createdAt,value
2018-08-28T00:02:29.983Z,9.00
2018-08-28T00:05:00.236Z,9.20
2018-08-28T00:07:29.150Z,9.77
2018-08-28T00:09:57.609Z,8.20
2018-08-28T00:12:26.212Z,8.67
2018-08-28T00:14:54.796Z,8.67
2018-08-28T00:17:23.259Z,8.83
2018-08-28T00:19:51.732Z,7.70
2018-08-28T00:22:20.160Z,8.67
2018-08-28T00:24:48.694Z,8.40
2018-08-28T00:27:17.279Z,9.00
2018-08-28T00:29:45.692Z,8.90
2018-08-28T00:32:14.126Z,7.80
2018-08-28T00:34:42.580Z,7.23
2018-08-28T00:37:11.017Z,7.43
2018-08-28T00:39:39.428Z,7.20
2018-08-28T00:42:08.098Z,7.87
2018-08-28T00:44:36.529Z,7.60
2018-08-28T00:47:05.000Z,8.00
2018-08-28T00:49:33.427Z,7.00
2018-08-28T00:52:01.864Z,8.60
2018-08-28T00:54:30.316Z,7.97
2018-08-28T00:56:58.756Z,6.80
2018-08-28T00:59:27.227Z,8.33
2018-08-28T01:01:55.627Z,7.13
2018-08-28T01:04:24.074Z,7.33
2018-08-28T01:06:52.514Z,9.27
2018-08-28T01:09:20.945Z,6.77
2018-08-28T01:11:50.004Z,7.70
2018-08-28T01:14:18.503Z,7.80
2018-08-28T01:16:46.948Z,8.60
2018-08-28T01:19:15.337Z,7.87
2018-08-28T01:21:43.774Z,6.73
2018-08-28T01:24:12.208Z,7.20
2018-08-28T01:26:40.690Z,7.30
2018-08-28T01:29:09.114Z,8.87
2018-08-28T01:31:37.513Z,6.63
2018-08-28T01:34:06.096Z,7.50
2018-08-28T01:36:34.536Z,7.33
2018-08-28T01:39:03.262Z,7.20
2018-08-28T01:41:31.673Z,7.50
2018-08-28T01:44:00.065Z,8.27
2018-08-28T01:46:28.484Z,7.03
2018-08-28T01:48:56.925Z,7.27
2018-08-28T01:51:25.351Z,7.07
2018-08-28T01:53:53.765Z,7.03
2018-08-28T01:56:22.198Z,6.90
2018-08-28T01:58:50.596Z,7.67
2018-08-28T02:01:19.161Z,6.87
2018-08-28T02:03:47.558Z,6.33
2018-08-28T02:06:15.989Z,6.60
2018-08-28T02:08:44.388Z,6.43
2018-08-28T02:11:12.821Z,7.40
2018-08-28T02:13:41.260Z,7.10
2018-08-28T02:16:09.673Z,6.93
2018-08-28T02:18:38.136Z,6.83
2018-08-28T02:21:06.609Z,7.53
2018-08-28T02:23:35.313Z,6.50
2018-08-28T02:26:03.736Z,7.80
2018-08-28T02:28:32.151Z,7.50
2018-08-28T02:31:00.577Z,6.30
2018-08-28T02:33:29.013Z,6.97
2018-08-28T02:35:57.435Z,7.43
2018-08-28T02:38:25.908Z,8.23
2018-08-28T02:40:54.311Z,6.47
2018-08-28T02:43:22.755Z,8.27
2018-08-28T02:45:51.157Z,6.27
2018-08-28T02:48:19.621Z,7.00
2018-08-28T02:50:48.031Z,7.57
2018-08-28T02:53:16.561Z,7.50
2018-08-28T02:55:44.980Z,8.83
2018-08-28T02:58:13.650Z,7.93
2018-08-28T03:00:42.149Z,7.70
2018-08-28T03:03:10.656Z,7.80
2018-08-28T03:05:39.121Z,7.80
2018-08-28T03:08:07.543Z,8.77
2018-08-28T03:10:35.987Z,8.10
2018-08-28T03:13:04.445Z,9.00
2018-08-28T03:15:32.992Z,8.50
2018-08-28T03:18:01.330Z,8.33
2018-08-28T03:20:29.749Z,7.90
2018-08-28T03:22:58.179Z,7.80
2018-08-28T03:25:26.585Z,8.13
2018-08-28T03:27:55.385Z,8.57
2018-08-28T03:30:23.877Z,9.53
2018-08-28T03:32:52.308Z,8.00
2018-08-28T03:35:20.716Z,9.03
2018-08-28T03:37:49.168Z,7.60
2018-08-28T03:40:17.584Z,8.70
2018-08-28T03:42:46.008Z,7.87
2018-08-28T03:45:14.444Z,8.50
2018-08-28T03:47:42.856Z,8.63
2018-08-28T03:50:11.268Z,9.37
2018-08-28T03:52:39.694Z,10.00
2018-08-28T03:55:08.133Z,9.17
2018-08-28T03:57:36.532Z,8.77
2018-08-28T04:00:05.634Z,9.10
2018-08-28T04:02:34.038Z,9.33
2018-08-28T04:05:02.658Z,7.67
2018-08-28T04:07:31.184Z,8.83
2018-08-28T04:09:59.632Z,9.77
2018-08-28T04:12:28.068Z,9.43
2018-08-28T04:14:56.500Z,8.60
2018-08-28T04:17:25.009Z,8.40
2018-08-28T04:19:53.442Z,8.50
2018-08-28T04:22:21.902Z,7.50
2018-08-28T04:24:50.345Z,8.30
2018-08-28T04:27:18.768Z,7.63
2018-08-28T04:29:47.221Z,7.30
2018-08-28T04:32:15.623Z,9.10
2018-08-28T04:34:44.081Z,8.00
2018-08-28T04:37:12.869Z,9.30
2018-08-28T04:39:41.296Z,8.23
2018-08-28T04:42:09.692Z,7.93
2018-08-28T04:44:38.124Z,7.10
2018-08-28T04:47:06.651Z,8.67
2018-08-28T04:49:35.090Z,7.50
2018-08-28T04:52:03.536Z,7.93
2018-08-28T04:54:31.942Z,8.33
2018-08-28T04:57:00.360Z,7.30
2018-08-28T04:59:28.784Z,9.63
2018-08-28T05:01:57.220Z,9.17
2018-08-28T05:04:25.692Z,8.57
2018-08-28T05:06:54.142Z,8.57
2018-08-28T05:09:22.784Z,8.20
2018-08-28T05:11:52.178Z,9.53
2018-08-28T05:14:20.586Z,7.77
2018-08-28T05:16:48.998Z,8.23
2018-08-28T05:19:17.543Z,8.30
2018-08-28T05:21:46.417Z,7.73
2018-08-28T05:24:14.914Z,7.70
2018-08-28T05:26:43.698Z,8.70
2018-08-28T05:29:12.224Z,9.07
2018-08-28T05:31:40.929Z,7.87
2018-08-28T05:34:09.323Z,7.53
2018-08-28T05:36:37.754Z,8.90
2018-08-28T05:39:07.028Z,7.97
2018-08-28T05:41:35.640Z,7.53
2018-08-28T05:44:04.068Z,8.07
2018-08-28T05:46:32.503Z,7.90
2018-08-28T05:49:00.932Z,8.23
2018-08-28T05:51:29.337Z,8.67
2018-08-28T05:53:58.512Z,8.40
2018-08-28T05:56:26.934Z,8.53
2018-08-28T05:58:55.510Z,8.33
2018-08-28T06:01:23.914Z,8.97
2018-08-28T06:03:52.346Z,8.00
2018-08-28T06:06:20.821Z,7.27
2018-08-28T06:08:49.356Z,9.10
2018-08-28T06:11:17.761Z,7.80
2018-08-28T06:13:46.238Z,7.90
2018-08-28T06:16:14.630Z,9.27
2018-08-28T06:18:43.122Z,7.03
2018-08-28T06:21:11.552Z,7.73
2018-08-28T06:23:39.954Z,8.67
2018-08-28T06:26:08.444Z,7.73
2018-08-28T06:28:36.868Z,7.37
2018-08-28T06:31:05.451Z,8.20
2018-08-28T06:33:38.319Z,9.83
2018-08-28T06:36:15.898Z,7.80
2018-08-28T06:38:44.545Z,8.33
2018-08-28T06:41:12.940Z,7.40
2018-08-28T06:43:41.401Z,7.90
2018-08-28T06:46:09.809Z,7.13
2018-08-28T06:48:38.422Z,6.80
2018-08-28T06:51:06.820Z,6.60
2018-08-28T06:53:35.261Z,7.20
2018-08-28T06:56:03.689Z,8.13
2018-08-28T06:58:32.121Z,8.33
2018-08-28T07:01:00.569Z,7.07
2018-08-28T07:03:29.131Z,8.00
2018-08-28T07:05:57.718Z,8.80
2018-08-28T07:08:26.800Z,8.47
2018-08-28T07:10:55.235Z,8.53
2018-08-28T07:13:23.638Z,7.67
2018-08-28T07:15:52.167Z,6.87
2018-08-28T07:18:20.572Z,7.10
2018-08-28T07:20:48.987Z,8.30
2018-08-28T07:23:17.538Z,8.07
2018-08-28T07:25:46.063Z,7.03
2018-08-28T07:28:14.345Z,8.10
2018-08-28T07:30:42.769Z,6.33
2018-08-28T07:33:11.213Z,5.97
2018-08-28T07:35:39.643Z,6.50
2018-08-28T07:38:08.102Z,5.90
2018-08-28T07:40:36.563Z,6.20
2018-08-28T07:43:05.108Z,5.80
2018-08-28T07:45:33.601Z,6.63
2018-08-28T07:48:02.016Z,7.27
2018-08-28T07:50:30.606Z,7.13
2018-08-28T07:52:59.057Z,6.73
2018-08-28T07:55:27.482Z,7.30
2018-08-28T07:57:55.863Z,6.87
2018-08-28T08:00:24.364Z,6.93
2018-08-28T08:02:52.749Z,6.63
2018-08-28T08:05:21.243Z,7.50
2018-08-28T08:07:49.683Z,8.10
2018-08-28T08:10:18.576Z,7.37
2018-08-28T08:12:47.033Z,7.30
2018-08-28T08:15:15.513Z,6.87
2018-08-28T08:17:43.919Z,7.60
2018-08-28T08:20:12.440Z,6.67
2018-08-28T08:22:40.869Z,7.23
2018-08-28T08:25:09.292Z,8.23
2018-08-28T08:27:37.691Z,8.03
2018-08-28T08:30:06.157Z,7.10
2018-08-28T08:32:34.575Z,7.40
2018-08-28T08:35:02.989Z,10.07
2018-08-28T08:37:31.457Z,7.37
2018-08-28T08:39:59.918Z,6.97
2018-08-28T08:42:28.316Z,6.80
2018-08-28T08:44:56.741Z,7.10
2018-08-28T08:47:25.119Z,7.13
2018-08-28T08:49:53.551Z,7.10
2018-08-28T08:52:22.163Z,9.00
2018-08-28T08:54:50.574Z,7.73
2018-08-28T08:57:18.912Z,7.90
2018-08-28T08:59:47.435Z,8.43
2018-08-28T09:02:15.813Z,8.03
2018-08-28T09:04:44.224Z,8.57
2018-08-28T09:07:13.081Z,7.50
2018-08-28T09:09:41.496Z,8.20
2018-08-28T09:12:09.909Z,7.33
2018-08-28T09:14:38.381Z,9.80
2018-08-28T09:17:06.959Z,7.70
2018-08-28T09:19:35.370Z,8.20
2018-08-28T09:22:03.823Z,9.33
2018-08-28T09:24:32.228Z,8.10
2018-08-28T09:27:00.621Z,8.77
2018-08-28T09:29:29.285Z,9.40
2018-08-28T09:31:57.729Z,8.83
2018-08-28T09:34:26.145Z,9.53
2018-08-28T09:36:54.777Z,10.57
2018-08-28T09:39:23.356Z,10.70
2018-08-28T09:41:51.841Z,10.77
2018-08-28T09:44:20.252Z,9.10
2018-08-28T09:46:48.665Z,10.27
2018-08-28T09:49:17.104Z,8.23
2018-08-28T09:51:45.593Z,9.60
2018-08-28T09:54:13.988Z,9.90
2018-08-28T09:56:42.517Z,10.40
2018-08-28T09:59:10.881Z,10.43
2018-08-28T10:01:43.208Z,9.80
2018-08-28T10:04:12.432Z,10.63
2018-08-28T10:06:40.973Z,8.70
2018-08-28T10:09:12.011Z,9.30
2018-08-28T10:11:40.696Z,9.70
2018-08-28T10:14:09.785Z,9.60
2018-08-28T10:16:38.253Z,9.13
2018-08-28T10:19:07.016Z,10.00
2018-08-28T10:21:35.645Z,9.33
2018-08-28T10:24:04.121Z,10.47
2018-08-28T10:26:32.550Z,9.47
2018-08-28T10:29:00.969Z,9.50
2018-08-28T10:31:29.570Z,10.90
2018-08-28T10:33:58.094Z,10.57
2018-08-28T10:36:26.837Z,9.73
2018-08-28T10:38:55.434Z,9.17
2018-08-28T10:41:23.955Z,9.83
2018-08-28T10:43:52.400Z,9.20
2018-08-28T10:46:20.962Z,9.40
2018-08-28T10:48:49.356Z,9.23
2018-08-28T10:51:18.242Z,8.80
2018-08-28T10:53:47.108Z,9.60
2018-08-28T10:56:15.605Z,8.67
2018-08-28T10:58:44.096Z,10.83
2018-08-28T11:01:12.448Z,9.70
2018-08-28T11:03:41.134Z,10.03
2018-08-28T11:06:09.578Z,9.37
2018-08-28T11:08:38.217Z,9.30
2018-08-28T11:11:06.671Z,9.93
2018-08-28T11:13:35.097Z,10.27
2018-08-28T11:16:03.567Z,10.17
2018-08-28T11:18:32.039Z,8.33
2018-08-28T11:21:00.473Z,9.23
2018-08-28T11:23:28.952Z,9.50
2018-08-28T11:25:57.367Z,10.47
2018-08-28T11:28:25.825Z,9.97
2018-08-28T11:30:54.275Z,9.47
2018-08-28T11:33:22.742Z,8.77
2018-08-28T11:35:51.635Z,9.10
2018-08-28T11:38:28.654Z,8.80
2018-08-28T11:40:57.159Z,9.70
2018-08-28T11:43:25.608Z,9.00
2018-08-28T11:45:54.134Z,8.23
2018-08-28T11:48:22.537Z,10.00
2018-08-28T11:50:51.102Z,9.60
2018-08-28T11:53:19.533Z,8.60
2018-08-28T11:55:47.992Z,8.90
2018-08-28T11:58:16.602Z,8.40
2018-08-28T12:00:45.035Z,8.27
2018-08-28T12:03:13.475Z,8.67
2018-08-28T12:05:41.886Z,9.10
2018-08-28T12:08:10.309Z,8.93
2018-08-28T12:10:38.783Z,8.30
2018-08-28T12:13:07.206Z,8.80
2018-08-28T12:15:35.716Z,9.50
2018-08-28T12:18:04.143Z,8.07
2018-08-28T12:20:32.688Z,8.10
2018-08-28T12:23:01.022Z,8.40
2018-08-28T12:25:29.492Z,7.77
2018-08-28T12:27:57.971Z,8.30
2018-08-28T12:30:26.399Z,9.00
2018-08-28T12:32:54.972Z,8.47
2018-08-28T12:35:23.473Z,8.63
2018-08-28T12:37:51.901Z,8.20
2018-08-28T12:40:20.393Z,7.73
2018-08-28T12:42:48.877Z,7.93
2018-08-28T12:45:17.291Z,9.07
2018-08-28T12:47:46.297Z,8.43
2018-08-28T12:50:14.903Z,8.20
2018-08-28T12:52:43.328Z,8.70
2018-08-28T12:55:11.769Z,8.53
2018-08-28T12:57:40.457Z,7.10
2018-08-28T13:00:09.169Z,8.10
2018-08-28T13:02:37.643Z,8.00
2018-08-28T13:05:06.167Z,7.47
2018-08-28T13:07:34.753Z,8.57
2018-08-28T13:10:03.237Z,7.33
2018-08-28T13:12:31.687Z,7.50
2018-08-28T13:15:00.096Z,7.27
2018-08-28T13:17:28.510Z,7.10
2018-08-28T13:19:56.978Z,6.87
2018-08-28T13:22:25.436Z,8.03
2018-08-28T13:24:57.970Z,7.73
2018-08-28T13:27:26.597Z,7.13
2018-08-28T13:29:55.040Z,7.50
2018-08-28T13:32:23.510Z,7.53
2018-08-28T13:34:51.932Z,6.60
2018-08-28T13:37:20.300Z,7.70
2018-08-28T13:39:48.730Z,7.53
2018-08-28T13:42:17.137Z,7.00
2018-08-28T13:44:45.576Z,7.27
2018-08-28T13:47:14.122Z,7.57
2018-08-28T13:49:42.420Z,7.77
2018-08-28T13:52:11.028Z,6.90
2018-08-28T13:54:39.515Z,7.30
2018-08-28T13:57:07.987Z,7.07
2018-08-28T13:59:36.456Z,6.03
2018-08-28T14:02:04.928Z,6.60
2018-08-28T14:04:33.455Z,5.37
2018-08-28T14:07:01.852Z,6.10
2018-08-28T14:09:30.264Z,6.00
2018-08-28T14:11:58.656Z,5.70
2018-08-28T14:14:27.590Z,6.60
2018-08-28T14:16:56.018Z,6.60
2018-08-28T14:19:24.435Z,6.60
2018-08-28T14:21:52.952Z,6.27
2018-08-28T14:24:21.360Z,7.40
2018-08-28T14:26:49.787Z,6.33
2018-08-28T14:29:18.201Z,6.40
2018-08-28T14:31:46.652Z,6.50
2018-08-28T14:34:15.019Z,7.40
2018-08-28T14:36:43.503Z,5.87
2018-08-28T14:39:11.912Z,5.93
2018-08-28T14:41:40.590Z,6.93
2018-08-28T14:44:09.214Z,6.87
2018-08-28T14:46:37.701Z,6.10
2018-08-28T14:49:06.336Z,7.77
2018-08-28T14:51:34.736Z,5.87
2018-08-28T14:54:03.240Z,5.73
2018-08-28T14:56:31.702Z,6.40
2018-08-28T14:59:00.057Z,6.20
2018-08-28T15:01:28.552Z,6.37
2018-08-28T15:03:57.006Z,5.50
2018-08-28T15:06:25.414Z,5.30
2018-08-28T15:08:53.879Z,5.43
2018-08-28T15:11:22.276Z,5.30
2018-08-28T15:13:50.715Z,6.10
2018-08-28T15:16:19.610Z,5.70
2018-08-28T15:18:48.113Z,6.47
2018-08-28T15:21:16.755Z,5.03
2018-08-28T15:23:45.421Z,5.40
2018-08-28T15:26:13.968Z,5.80
2018-08-28T15:28:43.342Z,6.53
2018-08-28T15:31:11.837Z,5.90
2018-08-28T15:33:40.451Z,5.80
2018-08-28T15:36:08.864Z,5.80
2018-08-28T15:38:37.484Z,5.70
2018-08-28T15:41:06.129Z,5.50
2018-08-28T15:43:34.596Z,5.53
2018-08-28T15:46:03.043Z,6.30
2018-08-28T15:48:31.436Z,5.20
2018-08-28T15:51:01.069Z,5.50
2018-08-28T15:53:29.447Z,6.10
2018-08-28T15:55:57.884Z,6.57
2018-08-28T15:58:26.326Z,5.47
2018-08-28T16:00:54.764Z,6.23
2018-08-28T16:03:23.234Z,6.00
2018-08-28T16:05:51.667Z,5.63
2018-08-28T16:08:20.096Z,5.27
2018-08-28T16:10:48.490Z,5.90
2018-08-28T16:13:16.880Z,6.33
2018-08-28T16:15:45.344Z,5.70
2018-08-28T16:18:13.830Z,5.60
2018-08-28T16:20:42.653Z,5.90
2018-08-28T16:23:16.416Z,6.00
2018-08-28T16:25:45.012Z,5.90
2018-08-28T16:28:13.520Z,5.63
2018-08-28T16:30:42.518Z,5.43
2018-08-28T16:33:11.043Z,7.33
2018-08-28T16:35:39.702Z,5.50
2018-08-28T16:38:11.390Z,5.60
2018-08-28T16:40:39.841Z,5.40
2018-08-28T16:43:08.258Z,5.50
2018-08-28T16:45:36.703Z,5.30
2018-08-28T16:48:05.083Z,5.90
2018-08-28T16:50:33.819Z,5.83
2018-08-28T16:53:02.243Z,7.63
2018-08-28T16:55:30.673Z,6.40
2018-08-28T16:57:59.083Z,5.63
2018-08-28T17:00:27.707Z,6.63
2018-08-28T17:02:56.113Z,5.80
2018-08-28T17:05:25.420Z,6.27
2018-08-28T17:07:53.916Z,6.33
2018-08-28T17:10:22.407Z,6.70
2018-08-28T17:12:50.833Z,5.77
2018-08-28T17:15:19.309Z,8.03
2018-08-28T17:17:47.741Z,6.17
2018-08-28T17:20:16.177Z,6.23
2018-08-28T17:22:44.587Z,7.07
2018-08-28T17:25:13.069Z,5.93
2018-08-28T17:27:41.546Z,5.60
2018-08-28T17:30:10.029Z,5.90
2018-08-28T17:32:38.457Z,5.53
2018-08-28T17:35:07.453Z,6.33
2018-08-28T17:37:35.921Z,6.10
2018-08-28T17:40:04.379Z,5.90
2018-08-28T17:42:32.999Z,5.73
2018-08-28T17:45:01.456Z,6.07
2018-08-28T17:47:29.943Z,6.30
2018-08-28T17:49:58.422Z,5.60
2018-08-28T17:52:26.861Z,6.60
2018-08-28T17:54:55.301Z,6.10
2018-08-28T17:57:23.697Z,5.63
2018-08-28T17:59:52.161Z,6.27
2018-08-28T18:02:20.955Z,6.87
2018-08-28T18:04:49.411Z,5.80
2018-08-28T18:07:18.823Z,7.30
2018-08-28T18:09:47.281Z,5.50
2018-08-28T18:12:15.707Z,6.80
2018-08-28T18:14:44.114Z,6.80
2018-08-28T18:17:12.784Z,7.03
2018-08-28T18:19:41.199Z,6.50
2018-08-28T18:22:10.584Z,6.00
2018-08-28T18:24:39.063Z,6.13
2018-08-28T18:27:07.496Z,6.90
2018-08-28T18:29:35.988Z,6.30
2018-08-28T18:32:04.433Z,6.73
2018-08-28T18:34:32.882Z,6.30
2018-08-28T18:37:01.282Z,6.30
2018-08-28T18:39:29.681Z,6.20
2018-08-28T18:42:13.833Z,6.80
2018-08-28T18:44:42.693Z,7.00
2018-08-28T18:47:11.189Z,6.60
2018-08-28T18:49:42.677Z,7.13
2018-08-28T18:52:11.135Z,6.30
2018-08-28T18:54:39.697Z,5.80
2018-08-28T18:57:08.099Z,6.87
2018-08-28T18:59:36.527Z,6.93
2018-08-28T19:02:05.001Z,5.80
2018-08-28T19:04:33.447Z,5.50
2018-08-28T19:07:01.891Z,7.00
2018-08-28T19:09:30.403Z,6.30
2018-08-28T19:11:58.789Z,7.00
2018-08-28T19:14:27.483Z,7.43
2018-08-28T19:16:56.477Z,6.70
2018-08-28T19:19:25.088Z,6.23
2018-08-28T19:21:54.073Z,6.50
2018-08-28T19:24:22.575Z,6.30
2018-08-28T19:26:51.035Z,6.57
2018-08-28T19:29:19.485Z,6.93
2018-08-28T19:31:48.112Z,6.77
2018-08-28T19:34:16.494Z,6.47
2018-08-28T19:36:54.787Z,7.00
2018-08-28T19:39:23.275Z,8.10
2018-08-28T19:41:51.761Z,6.97
2018-08-28T19:44:20.288Z,6.90
2018-08-28T19:46:48.797Z,6.83
2018-08-28T19:49:17.206Z,6.73
2018-08-28T19:51:45.637Z,6.30
2018-08-28T19:54:14.121Z,6.97
2018-08-28T19:56:42.577Z,6.47
2018-08-28T19:59:10.979Z,7.53
2018-08-28T20:01:39.429Z,7.30
2018-08-28T20:04:08.111Z,7.27
2018-08-28T20:06:36.448Z,6.50
2018-08-28T20:09:05.336Z,6.77
2018-08-28T20:11:33.790Z,7.33
2018-08-28T20:14:02.240Z,7.13
2018-08-28T20:16:30.657Z,6.43
2018-08-28T20:18:59.199Z,7.40
2018-08-28T20:21:27.603Z,7.30
2018-08-28T20:23:56.136Z,7.40
2018-08-28T20:26:24.639Z,6.60
2018-08-28T20:28:53.063Z,7.40
2018-08-28T20:31:22.068Z,7.47
2018-08-28T20:33:50.589Z,8.00
2018-08-28T20:36:19.037Z,7.67
2018-08-28T20:38:47.449Z,8.07
2018-08-28T20:41:15.883Z,8.10
2018-08-28T20:43:44.453Z,7.27
2018-08-28T20:46:12.917Z,6.83
2018-08-28T20:48:41.421Z,7.13
2018-08-28T20:51:09.848Z,7.90
2018-08-28T20:53:38.368Z,7.10
2018-08-28T20:56:06.873Z,7.30
2018-08-28T20:58:35.367Z,7.73
2018-08-28T21:01:03.793Z,7.70
2018-08-28T21:03:32.209Z,8.13
2018-08-28T21:06:00.653Z,8.20
2018-08-28T21:08:29.140Z,8.37
2018-08-28T21:10:57.584Z,7.63
2018-08-28T21:13:27.408Z,8.03
2018-08-28T21:15:56.019Z,7.27
2018-08-28T21:18:24.444Z,7.90
2018-08-28T21:20:52.876Z,7.60
2018-08-28T21:23:21.322Z,7.93
2018-08-28T21:25:49.732Z,8.03
2018-08-28T21:28:18.169Z,7.30
2018-08-28T21:30:46.585Z,8.17
2018-08-28T21:33:15.000Z,7.50
2018-08-28T21:35:43.466Z,7.97
2018-08-28T21:38:11.828Z,7.90
2018-08-28T21:40:40.254Z,7.03
2018-08-28T21:43:08.884Z,7.30
2018-08-28T21:45:37.333Z,7.30
2018-08-28T21:48:05.775Z,7.93
2018-08-28T21:50:34.193Z,6.90
2018-08-28T21:53:02.636Z,7.13
2018-08-28T21:55:31.090Z,7.33
2018-08-28T21:57:59.536Z,8.20
2018-08-28T22:00:27.970Z,7.60
2018-08-28T22:02:56.410Z,7.40
2018-08-28T22:05:29.804Z,7.97
2018-08-28T22:07:59.747Z,8.87
2018-08-28T22:10:29.246Z,7.93
2018-08-28T22:12:57.816Z,8.57
2018-08-28T22:15:26.715Z,7.40
2018-08-28T22:17:55.771Z,7.40
2018-08-28T22:20:24.165Z,7.17
2018-08-28T22:22:53.317Z,7.60
2018-08-28T22:25:21.963Z,7.27
2018-08-28T22:27:50.386Z,7.90
2018-08-28T22:30:18.791Z,8.40
2018-08-28T22:32:47.186Z,7.13
2018-08-28T22:35:15.863Z,8.50
2018-08-28T22:37:44.282Z,7.90
2018-08-28T22:40:13.252Z,7.40
2018-08-28T22:42:42.144Z,7.33
2018-08-28T22:45:10.716Z,8.23
2018-08-28T22:47:49.213Z,7.37
2018-08-28T22:50:17.741Z,7.80
2018-08-28T22:52:46.136Z,7.63
2018-08-28T22:55:14.556Z,8.73
2018-08-28T22:57:42.958Z,7.70
2018-08-28T23:00:11.376Z,7.03
2018-08-28T23:02:39.782Z,8.97
2018-08-28T23:05:08.204Z,7.20
2018-08-28T23:07:36.641Z,8.97
2018-08-28T23:10:05.185Z,8.63
2018-08-28T23:12:33.585Z,8.90
2018-08-28T23:15:02.041Z,8.10
2018-08-28T23:17:30.483Z,8.50
2018-08-28T23:19:58.901Z,8.37
2018-08-28T23:22:27.343Z,8.03
2018-08-28T23:24:55.755Z,7.83
2018-08-28T23:27:24.185Z,7.90
2018-08-28T23:29:52.680Z,8.43
2018-08-28T23:32:21.146Z,8.73
2018-08-28T23:34:49.547Z,7.47
2018-08-28T23:37:17.949Z,7.57
2018-08-28T23:39:46.369Z,8.30
2018-08-28T23:42:14.955Z,7.17
2018-08-28T23:44:43.381Z,7.90
2018-08-28T23:47:11.801Z,7.50
2018-08-28T23:49:40.263Z,8.20
2018-08-28T23:52:08.719Z,7.43
2018-08-28T23:54:37.195Z,7.77
2018-08-28T23:57:05.613Z,8.70
2018-08-28T23:59:34.044Z,7.63
